createdAt,value
2018-12-06T08:22:57.739Z,97781.08
2018-12-06T08:33:17.416Z,97785.28
2018-12-06T08:43:37.236Z,97790.49
2018-12-06T08:53:56.370Z,97787.80
2018-12-06T09:04:15.805Z,97800.50
2018-12-06T09:14:35.286Z,97797.34
2018-12-06T09:24:54.966Z,97788.73
2018-12-06T09:35:14.361Z,97774.73
2018-12-06T09:45:34.051Z,97773.70
2018-12-06T09:55:54.710Z,97785.81
2018-12-06T10:06:14.362Z,97777.73
2018-12-06T10:16:34.278Z,97778.52
2018-12-06T10:26:53.587Z,97776.84
2018-12-06T10:37:13.051Z,97769.86
2018-12-06T10:47:32.092Z,97766.83
2018-12-06T10:57:51.518Z,97775.00
2018-12-06T11:08:11.240Z,97776.31
2018-12-06T11:18:30.702Z,97774.99
2018-12-06T11:28:50.058Z,97782.12
2018-12-06T11:39:09.525Z,97767.76
2018-12-06T11:49:28.778Z,97780.66
2018-12-06T11:59:48.150Z,97784.38
2018-12-06T12:10:08.378Z,97771.40
2018-12-06T12:20:28.446Z,97768.97
2018-12-06T12:30:47.941Z,97783.58
2018-12-06T12:41:07.627Z,97778.72
2018-12-06T12:51:27.532Z,97777.30
2018-12-06T13:01:47.271Z,97779.28
2018-12-06T13:12:09.015Z,97769.77
2018-12-06T13:22:29.731Z,97769.41
2018-12-06T13:32:50.469Z,97756.22
2018-12-06T13:43:11.785Z,97744.57
2018-12-06T13:53:31.954Z,97732.10
2018-12-06T14:03:53.076Z,97720.73
2018-12-06T14:14:13.152Z,97718.61
2018-12-06T14:24:32.903Z,97715.09
2018-12-06T14:34:53.286Z,97732.16
2018-12-06T14:45:13.627Z,97754.86
2018-12-06T14:55:35.329Z,97755.40
2018-12-06T15:05:55.271Z,97764.88
2018-12-06T15:16:16.112Z,97775.90
2018-12-06T15:26:37.097Z,97782.60
2018-12-06T15:36:56.552Z,97779.95
2018-12-06T15:47:16.852Z,97805.13
2018-12-06T15:57:37.008Z,97806.47
2018-12-06T16:07:56.731Z,97798.92
2018-12-06T16:18:17.340Z,97809.97
2018-12-06T16:28:37.876Z,97818.11
2018-12-06T16:38:57.941Z,97827.58
2018-12-06T16:49:19.644Z,97831.61
2018-12-06T16:59:40.067Z,97828.37
2018-12-06T17:10:00.051Z,97823.02
2018-12-06T17:20:20.843Z,97840.05
2018-12-06T17:30:41.034Z,97828.97
2018-12-06T17:41:02.138Z,97839.48
2018-12-06T17:51:23.091Z,97825.41
2018-12-06T18:01:42.915Z,97820.31
2018-12-06T18:12:04.209Z,97825.48
2018-12-06T18:22:24.787Z,97826.58
2018-12-06T18:32:45.022Z,97829.88
2018-12-06T18:43:06.164Z,97824.45
2018-12-06T18:53:27.564Z,97814.73
2018-12-06T19:03:49.516Z,97825.84
2018-12-06T19:14:22.096Z,97813.70
2018-12-06T19:24:43.839Z,97811.02
2018-12-06T19:35:05.451Z,97812.11
2018-12-06T19:45:26.400Z,97812.39
2018-12-06T19:55:48.307Z,97809.16
2018-12-06T20:06:11.261Z,97806.47
2018-12-06T20:16:32.762Z,97807.28
2018-12-06T20:26:53.701Z,97815.70
2018-12-06T20:37:15.364Z,97805.14
2018-12-06T20:47:37.122Z,97799.20
2018-12-06T20:57:57.843Z,97797.31
2018-12-06T21:08:18.879Z,97787.55
2018-12-06T21:18:41.971Z,97788.11
2018-12-06T21:29:09.986Z,97759.94
2018-12-06T21:39:29.815Z,97755.33
2018-12-06T21:49:51.680Z,97759.13
2018-12-06T22:00:12.457Z,97751.55
2018-12-06T22:10:31.439Z,97761.84
2018-12-06T22:20:54.399Z,97731.94
2018-12-06T22:31:14.883Z,97714.91
2018-12-06T22:41:33.968Z,97712.25
2018-12-06T22:51:53.453Z,97717.66
2018-12-06T23:02:14.486Z,97713.45
2018-12-06T23:12:34.543Z,97689.36
2018-12-06T23:22:55.094Z,97697.55
2018-12-06T23:33:14.885Z,97698.59
2018-12-06T23:43:33.804Z,97679.80
2018-12-06T23:53:53.735Z,97693.42
